Time;durP1;ratioP1;P1;durP2;ratioP2;P2;SDS_P1;SDS_P2;PMS_P1;PMS_P2;Temp;Humidity;BMP_temperature;BMP_pressure;BME280_temperature;BME280_humidity;BME280_pressure;Samples;Min_cycle;Max_cycle;Signal;HPM_P1;HPM_P2
2021/04/04 00:02:23;;;;;;;51.10;39.30;;;;;;;3.29;60.95;99977.70;1645870;85;22114;-78
2021/04/04 00:04:52;;;;;;;52.67;38.67;;;;;;;3.30;60.89;99984.15;1584756;89;21340;-79
2021/04/04 00:07:22;;;;;;;55.40;38.70;;;;;;;3.37;60.81;99975.63;1640447;85;22416;-78
2021/04/04 00:09:50;;;;;;;62.77;43.63;;;;;;;3.42;60.88;99984.74;1607204;86;21553;-79
2021/04/04 00:12:18;;;;;;;58.67;42.93;;;;;;;3.48;60.77;99984.63;1634865;81;21115;-78
2021/04/04 00:14:46;;;;;;;59.77;47.73;;;;;;;3.53;61.19;99981.56;1621744;86;21518;-78
2021/04/04 00:17:16;;;;;;;62.40;44.37;;;;;;;3.54;61.07;99977.92;1626518;86;21203;-78
2021/04/04 00:19:46;;;;;;;59.60;44.17;;;;;;;3.54;61.02;99987.16;1637463;86;21183;-79
2021/04/04 00:22:12;;;;;;;;;;;;;;;3.53;60.99;99994.23;1643529;84;21164;-79
2021/04/04 00:24:40;;;;;;;58.70;40.33;;;;;;;3.56;60.93;99995.27;1649175;85;20230;-79
2021/04/04 00:27:09;;;;;;;54.60;38.47;;;;;;;3.54;61.02;99997.19;1633607;86;21215;-79
2021/04/04 00:29:37;;;;;;;51.97;36.73;;;;;;;3.57;61.34;99999.54;1605370;88;21324;-78
2021/04/04 00:32:05;;;;;;;51.97;36.33;;;;;;;3.61;61.21;100007.48;1624434;86;21342;-78
2021/04/04 00:34:34;;;;;;;50.57;34.13;;;;;;;3.59;61.13;100009.44;1613261;85;21250;-77
2021/04/04 00:37:03;;;;;;;51.77;34.93;;;;;;;3.54;61.21;100010.37;1613509;87;21179;-76
2021/04/04 00:39:34;;;;;;;42.47;33.33;;;;;;;3.50;61.33;100009.02;1601019;88;22430;-78
2021/04/04 00:42:01;;;;;;;47.90;34.27;;;;;;;3.45;61.52;100007.34;1600551;88;21356;-79
2021/04/04 00:44:29;;;;;;;59.50;42.27;;;;;;;3.41;61.62;100005.97;1625874;85;21244;-78
2021/04/04 00:46:58;;;;;;;;;;;;;;;3.36;61.40;100006.43;1652634;85;21150;-79
2021/04/04 00:49:28;;;;;;;58.13;41.53;;;;;;;3.27;61.50;100002.87;1636800;85;20206;-76
2021/04/04 00:51:55;;;;;;;65.40;44.83;;;;;;;3.18;61.92;100006.89;1645388;85;21174;-77
2021/04/04 00:54:25;;;;;;;65.63;45.70;;;;;;;3.13;61.99;100002.09;1634731;85;21206;-78
2021/04/04 00:56:52;;;;;;;65.97;44.77;;;;;;;2.70;62.01;99943.03;1627322;85;21102;-78
2021/04/04 00:59:20;;;;;;;65.60;44.20;;;;;;;3.10;61.98;100011.59;1604354;88;21308;-79
2021/04/04 01:01:49;;;;;;;67.43;44.50;;;;;;;3.11;62.03;100018.03;1621834;86;21149;-77
2021/04/04 01:04:19;;;;;;;58.50;40.17;;;;;;;3.15;62.07;100021.70;1624815;86;21335;-78
2021/04/04 01:06:48;;;;;;;61.97;42.20;;;;;;;3.18;62.25;100015.62;1623432;86;21193;-78
2021/04/04 01:09:16;;;;;;;58.07;42.50;;;;;;;3.24;62.40;100022.09;1631632;86;21351;-77
2021/04/04 01:12:02;;;;;;;64.10;44.57;;;;;;;3.22;62.63;100029.32;1628967;85;21600;-79
2021/04/04 01:14:36;;;;;;;61.42;42.33;;;;;;;3.20;62.88;100035.23;1579734;88;21311;-77
2021/04/04 01:17:05;;;;;;;74.23;49.47;;;;;;;3.22;63.40;100036.76;1612573;87;21347;-78
2021/04/04 01:20:07;;;;;;;65.03;45.13;;;;;;;3.27;64.02;100034.98;1609261;87;21226;-78
2021/04/04 01:23:03;;;;;;;70.20;46.33;;;;;;;3.40;64.41;100032.81;1613837;85;21250;-78
2021/04/04 01:25:53;;;;;;;59.00;41.57;;;;;;;3.62;64.46;100032.87;1588404;88;21261;-79
2021/04/04 01:28:27;;;;;;;51.77;35.30;;;;;;;3.72;64.70;100028.02;1566885;90;21228;-80
2021/04/04 01:30:56;;;;;;;74.37;52.10;;;;;;;3.73;65.43;100029.66;1583122;88;21240;-79
2021/04/04 01:33:25;;;;;;;77.23;52.73;;;;;;;3.76;64.92;100025.41;1621044;86;21605;-79
2021/04/04 01:35:57;;;;;;;74.67;53.97;;;;;;;3.76;64.62;100022.27;1667056;85;21197;-80
2021/04/04 01:38:27;;;;;;;81.57;54.20;;;;;;;3.77;64.50;100025.72;1663001;86;21165;-79
2021/04/04 01:41:18;;;;;;;74.87;52.73;;;;;;;3.79;64.43;100027.25;1601725;88;21947;-79
2021/04/04 01:44:06;;;;;;;71.30;49.70;;;;;;;3.92;64.43;100025.55;1771565;79;23086;-78
2021/04/04 01:46:35;;;;;;;64.43;45.67;;;;;;;3.91;64.39;100023.87;1734925;82;21192;-77
2021/04/04 01:49:03;;;;;;;58.47;38.37;;;;;;;3.93;64.52;100023.23;1728181;80;22217;-78
2021/04/04 01:51:31;;;;;;;61.00;38.60;;;;;;;4.04;64.60;100028.77;1726760;80;21192;-79
2021/04/04 01:54:03;;;;;;;48.70;30.90;;;;;;;4.22;64.33;100027.39;1730812;82;21164;-80
2021/04/04 01:56:32;;;;;;;43.27;29.83;;;;;;;4.29;64.51;100025.80;1698253;81;21912;-78
2021/04/04 01:59:02;;;;;;;49.50;34.03;;;;;;;4.25;65.42;100021.31;1667024;83;21273;-79
2021/04/04 02:01:31;;;;;;;39.43;29.70;;;;;;;4.23;65.19;100026.42;1681859;83;21120;-79
2021/04/04 02:04:04;;;;;;;52.50;39.53;;;;;;;4.15;66.02;100023.23;1690028;84;21204;-78
2021/04/04 02:06:35;;;;;;;48.17;34.67;;;;;;;4.11;65.80;100023.21;1677011;84;21199;-76
2021/04/04 02:09:10;;;;;;;48.13;36.20;;;;;;;4.07;65.62;100014.78;1685683;84;21349;-78
2021/04/04 02:11:39;;;;;;;47.37;32.40;;;;;;;4.08;65.66;100025.65;1672714;83;21279;-77
2021/04/04 02:14:11;;;;;;;43.63;32.17;;;;;;;4.17;65.46;100021.77;1696248;83;21227;-79
2021/04/04 02:16:43;;;;;;;41.90;32.57;;;;;;;4.27;65.27;100031.72;1690388;83;21587;-79
2021/04/04 02:19:15;;;;;;;48.70;33.07;;;;;;;4.22;65.27;100033.52;1676446;83;21172;-77
2021/04/04 02:21:47;;;;;;;47.80;34.03;;;;;;;4.21;65.37;100033.66;1709314;83;21212;-78
2021/04/04 02:24:17;;;;;;;46.33;32.20;;;;;;;4.21;65.35;100036.30;1699362;81;21069;-77
2021/04/04 02:26:46;;;;;;;48.03;33.87;;;;;;;4.23;65.37;100035.66;1678061;84;21208;-77
2021/04/04 02:29:13;;;;;;;46.43;33.20;;;;;;;4.22;65.14;100040.58;1688857;82;21210;-76
2021/04/04 02:31:56;;;;;;;42.67;32.33;;;;;;;4.16;64.95;100027.52;1691611;82;21184;-79
2021/04/04 02:34:33;;;;;;;49.37;34.03;;;;;;;4.13;64.91;100027.02;1694271;83;21101;-80
2021/04/04 02:37:05;;;;;;;38.53;28.67;;;;;;;4.15;64.87;100031.16;1703694;84;21307;-80
2021/04/04 02:39:41;;;;;;;35.07;23.43;;;;;;;4.26;64.80;100032.72;1698248;84;21198;-80
2021/04/04 02:42:11;;;;;;;30.07;22.17;;;;;;;4.22;65.27;100028.70;1692591;80;21224;-79
2021/04/04 02:44:40;;;;;;;34.00;23.77;;;;;;;4.10;65.77;100026.82;1682931;83;21091;-80
2021/04/04 02:47:13;;;;;;;31.93;23.27;;;;;;;3.99;66.03;100025.75;1655368;84;21148;-79
2021/04/04 02:49:45;;;;;;;32.50;23.37;;;;;;;3.98;66.28;100025.42;1651206;84;21180;-80
2021/04/04 02:52:18;;;;;;;36.97;25.90;;;;;;;3.96;66.40;100028.21;1668885;84;21157;-79
2021/04/04 02:54:47;;;;;;;33.73;24.40;;;;;;;3.95;66.16;100023.08;1671171;84;21314;-81
2021/04/04 02:57:15;;;;;;;18.60;13.77;;;;;;;3.95;66.25;100022.58;1636135;84;21085;-80
2021/04/04 02:59:47;;;;;;;19.53;13.70;;;;;;;4.07;66.73;100016.09;1645457;85;21200;-80
2021/04/04 03:02:18;;;;;;;20.00;15.03;;;;;;;4.30;65.60;100014.27;1689812;83;21255;-80
2021/04/04 03:04:51;;;;;;;20.57;14.70;;;;;;;4.40;64.76;100016.80;1701646;83;21643;-79
2021/04/04 03:07:23;;;;;;;18.07;13.60;;;;;;;4.44;64.59;100013.67;1697173;83;21339;-80
2021/04/04 03:09:52;;;;;;;21.97;13.47;;;;;;;4.49;64.42;100019.81;1703259;83;21595;-80
2021/04/04 03:12:22;;;;;;;17.73;11.77;;;;;;;4.54;64.15;100021.98;1668000;83;21096;-79
2021/04/04 03:14:55;;;;;;;16.60;9.80;;;;;;;4.56;64.04;100016.05;1630393;86;21411;-78
2021/04/04 03:17:27;;;;;;;13.43;9.57;;;;;;;4.59;63.92;100013.92;1635175;86;21180;-79
2021/04/04 03:19:56;;;;;;;16.10;11.10;;;;;;;4.65;63.79;100015.10;1641260;87;21338;-78
2021/04/04 03:22:23;;;;;;;16.10;12.90;;;;;;;4.42;63.54;99974.73;1635826;85;21191;-79
2021/04/04 03:24:52;;;;;;;14.37;11.30;;;;;;;4.65;63.54;100011.99;1673017;85;21691;-79
2021/04/04 03:27:21;;;;;;;16.70;11.60;;;;;;;4.62;63.60;100009.66;1632271;86;21223;-79
2021/04/04 03:29:48;;;;;;;16.53;12.47;;;;;;;4.67;63.79;100013.98;1672902;85;21796;-79
2021/04/04 03:32:16;;;;;;;16.97;12.27;;;;;;;4.76;63.51;100014.83;1665672;85;21182;-79
2021/04/04 03:34:44;;;;;;;16.40;11.50;;;;;;;4.78;63.61;100022.59;1666705;85;21285;-79
2021/04/04 03:37:14;;;;;;;12.70;9.87;;;;;;;4.74;63.90;100026.55;1666907;85;21412;-79
2021/04/04 03:39:43;;;;;;;13.50;9.73;;;;;;;4.69;63.90;100028.34;1667063;85;21658;-80
2021/04/04 03:42:11;;;;;;;10.77;8.50;;;;;;;4.65;63.77;100026.98;1649814;85;21210;-78
2021/04/04 03:44:41;;;;;;;12.07;8.77;;;;;;;4.62;63.84;100036.56;1672781;84;21087;-79
2021/04/04 03:47:09;;;;;;;11.33;8.53;;;;;;;4.59;63.84;100044.78;1679623;83;21189;-80
2021/04/04 03:49:39;;;;;;;9.10;7.53;;;;;;;4.54;63.68;100045.27;1653157;85;21324;-79
2021/04/04 03:52:07;;;;;;;10.40;9.00;;;;;;;4.52;63.77;100051.19;1647480;85;21209;-79
2021/04/04 03:54:36;;;;;;;12.57;9.40;;;;;;;4.52;63.57;100054.30;1655407;84;21190;-79
2021/04/04 03:57:06;;;;;;;16.83;11.07;;;;;;;4.51;63.47;100057.94;1697105;82;21696;-79
2021/04/04 03:59:38;;;;;;;17.50;11.90;;;;;;;4.49;63.89;100058.91;1661504;85;21199;-80
2021/04/04 04:02:05;;;;;;;18.80;13.87;;;;;;;4.55;64.03;100053.50;1652736;85;21598;-80
2021/04/04 04:04:33;;;;;;;23.00;15.43;;;;;;;4.67;64.45;100053.58;1664226;84;21594;-82
2021/04/04 04:07:01;;;;;;;14.27;9.47;;;;;;;4.70;65.63;100046.33;1689412;83;21255;-81
2021/04/04 04:09:29;;;;;;;12.07;8.20;;;;;;;4.59;64.88;100046.09;1650603;83;21156;-80
2021/04/04 04:11:56;;;;;;;10.00;6.53;;;;;;;4.48;64.08;100042.75;1652094;84;21068;-82
2021/04/04 04:14:23;;;;;;;7.53;6.70;;;;;;;4.40;64.04;100042.69;1658620;84;21337;-83
2021/04/04 04:16:52;;;;;;;11.60;6.10;;;;;;;4.31;64.67;100042.80;1677036;83;21328;-84
2021/04/04 04:19:20;;;;;;;6.83;5.33;;;;;;;4.22;64.29;100056.41;1699776;82;21147;-76
2021/04/04 04:21:47;;;;;;;3.80;3.50;;;;;;;4.16;64.67;100051.76;1659442;82;21166;-78
2021/04/04 04:24:17;;;;;;;3.00;2.73;;;;;;;4.17;64.17;100053.42;1663203;83;21243;-80
2021/04/04 04:26:47;;;;;;;3.97;3.13;;;;;;;4.25;64.27;100052.97;1690438;83;21355;-80
2021/04/04 04:29:19;;;;;;;4.30;3.23;;;;;;;4.27;64.54;100063.38;1651564;85;21601;-80
2021/04/04 04:31:51;;;;;;;4.43;3.87;;;;;;;4.31;64.12;100062.08;1668795;84;21426;-80
2021/04/04 04:34:22;;;;;;;5.67;3.23;;;;;;;4.36;63.80;100074.33;1695607;83;21109;-80
2021/04/04 04:36:54;;;;;;;3.70;3.40;;;;;;;4.43;63.72;100080.66;1691359;84;21428;-81
2021/04/04 04:39:24;;;;;;;4.47;4.07;;;;;;;4.49;64.05;100085.30;1663911;85;21199;-81
2021/04/04 04:41:53;;;;;;;3.77;3.47;;;;;;;4.54;63.49;100090.61;1651655;85;21756;-80
2021/04/04 04:44:27;;;;;;;3.70;3.17;;;;;;;4.51;63.46;100083.02;1616458;86;21216;-81
2021/04/04 04:46:55;;;;;;;4.83;2.70;;;;;;;4.60;63.40;100082.91;1625628;86;21609;-82
2021/04/04 04:49:26;;;;;;;3.43;3.13;;;;;;;4.59;62.63;100086.52;1636077;85;21607;-81
2021/04/04 04:51:53;;;;;;;4.97;3.03;;;;;;;4.46;63.05;100086.95;1635790;85;21442;-81
2021/04/04 04:54:20;;;;;;;5.80;4.40;;;;;;;4.35;63.62;100084.56;1640398;85;21351;-81
2021/04/04 04:56:50;;;;;;;3.90;3.53;;;;;;;4.28;64.08;100088.30;1614658;85;21163;-82
2021/04/04 04:59:18;;;;;;;4.57;4.10;;;;;;;4.24;64.20;100086.13;1654294;85;21219;-83
2021/04/04 05:01:48;;;;;;;7.40;5.07;;;;;;;4.22;64.40;100087.59;1666889;81;21161;-83
2021/04/04 05:04:15;;;;;;;4.37;3.97;;;;;;;4.22;64.44;100086.75;1675394;84;21214;-81
2021/04/04 05:06:47;;;;;;;4.93;4.33;;;;;;;4.34;64.52;100080.75;1675961;84;21207;-80
2021/04/04 05:09:17;;;;;;;6.03;4.57;;;;;;;4.43;64.46;100092.53;1677954;84;21289;-81
2021/04/04 05:11:48;;;;;;;6.10;4.53;;;;;;;4.45;64.79;100094.52;1683271;85;21120;-82
2021/04/04 05:14:16;;;;;;;5.53;4.93;;;;;;;4.46;64.91;100093.55;1659910;84;21281;-81
2021/04/04 05:16:43;;;;;;;6.67;4.90;;;;;;;4.48;65.54;100098.18;1678548;84;21211;-81
2021/04/04 05:19:14;;;;;;;5.30;4.17;;;;;;;4.53;65.21;100100.84;1649476;86;21197;-83
2021/04/04 05:21:43;;;;;;;3.77;3.47;;;;;;;4.54;65.57;100102.48;1669604;84;21394;-83
2021/04/04 05:24:15;;;;;;;5.27;4.40;;;;;;;4.63;65.49;100100.23;1674389;84;21089;-83
2021/04/04 05:26:46;;;;;;;6.17;3.83;;;;;;;4.77;65.12;100101.49;1685751;84;21281;-82
2021/04/04 05:29:16;;;;;;;4.93;3.27;;;;;;;4.77;65.24;100104.95;1679589;84;21330;-80
2021/04/04 05:31:50;;;;;;;3.93;3.60;;;;;;;4.79;65.29;100102.98;1665633;85;21400;-80
2021/04/04 05:34:23;;;;;;;3.23;2.93;;;;;;;4.80;65.12;100107.29;1677234;85;21136;-80
2021/04/04 05:36:58;;;;;;;4.63;3.77;;;;;;;4.81;65.00;100105.47;1679471;84;21198;-81
2021/04/04 05:39:29;;;;;;;3.57;3.23;;;;;;;4.83;65.17;100110.92;1676883;84;21198;-85
2021/04/04 05:42:03;;;;;;;5.33;3.50;;;;;;;4.97;64.73;100109.53;1671424;85;21235;-86
2021/04/04 05:44:51;;;;;;;3.90;3.60;;;;;;;5.10;64.29;100108.25;1679256;83;21195;-83
2021/04/04 05:47:53;;;;;;;2.67;2.43;;;;;;;5.11;64.08;100105.95;1616577;83;22265;-84
2021/04/04 05:50:42;;;;;;;4.87;4.30;;;;;;;5.13;64.01;100108.77;1621347;88;21332;-83
2021/04/04 05:53:20;;;;;;;4.53;3.17;;;;;;;5.15;64.11;100111.25;1626414;87;21133;-84
2021/04/04 05:56:06;;;;;;;7.23;4.63;;;;;;;5.19;64.08;100109.95;1621185;86;21156;-84
2021/04/04 05:58:45;;;;;;;5.93;4.23;;;;;;;5.21;64.19;100119.36;1649233;87;21678;-84
2021/04/04 06:01:26;;;;;;;5.57;2.80;;;;;;;5.26;64.11;100119.72;1639786;86;21266;-83
2021/04/04 06:04:35;;;;;;;4.07;3.37;;;;;;;5.45;63.86;100123.09;1638709;87;21390;-82
2021/04/04 06:07:22;;;;;;;;;;;;;;;5.72;63.16;100123.32;1634770;87;21239;-83
2021/04/04 06:10:11;;;;;;;3.83;3.53;;;;;;;5.88;62.76;100130.95;1664806;85;20196;-85
2021/04/04 06:13:07;;;;;;;3.70;3.30;;;;;;;5.79;62.52;100132.27;1653320;85;21086;-84
2021/04/04 06:16:08;;;;;;;4.57;4.17;;;;;;;5.78;62.68;100137.24;1621752;86;21216;-82
2021/04/04 06:19:08;;;;;;;4.10;3.70;;;;;;;5.76;62.69;100130.44;1637509;85;21161;-91
2021/04/04 06:21:55;;;;;;;7.57;4.30;;;;;;;5.64;63.13;100138.67;1638162;85;21287;-76
2021/04/04 06:24:46;;;;;;;3.70;3.40;;;;;;;5.55;63.42;100142.28;1639974;86;21115;-78
2021/04/04 06:27:49;;;;;;;3.40;3.10;;;;;;;5.53;63.76;100137.65;1624833;87;21604;-77
2021/04/04 06:30:49;;;;;;;4.57;2.83;;;;;;;5.70;63.79;100133.73;1637199;87;21213;-79
2021/04/04 06:33:28;;;;;;;4.97;3.90;;;;;;;5.87;63.20;100140.71;1624086;86;21193;-76
2021/04/04 06:36:34;;;;;;;5.63;3.27;;;;;;;5.90;63.24;100144.87;1636257;87;21647;-79
2021/04/04 06:39:24;;;;;;;5.37;3.93;;;;;;;5.89;63.19;100151.13;1648779;87;21200;-80
2021/04/04 06:42:04;;;;;;;6.73;4.40;;;;;;;5.86;63.48;100150.98;1636080;87;21212;-77
2021/04/04 06:45:05;;;;;;;3.13;2.83;;;;;;;5.83;63.57;100148.14;1643782;87;21135;-75
2021/04/04 06:48:00;;;;;;;2.93;2.63;;;;;;;5.77;63.69;100149.30;1646073;85;21158;-74
2021/04/04 06:50:31;;;;;;;3.50;2.97;;;;;;;5.66;63.81;100155.20;1669107;85;21178;-77
2021/04/04 06:53:20;;;;;;;4.90;2.47;;;;;;;5.76;63.75;100160.35;1663972;85;21162;-76
2021/04/04 06:56:23;;;;;;;4.87;2.87;;;;;;;5.86;63.73;100161.55;1674770;84;21056;-75
2021/04/04 06:59:33;;;;;;;3.30;2.97;;;;;;;5.84;63.53;100160.89;1910118;74;23122;-79
2021/04/04 07:02:11;;;;;;;4.30;3.17;;;;;;;5.80;63.62;100163.50;1769202;75;21087;-79
2021/04/04 07:04:59;;;;;;;7.00;3.50;;;;;;;5.87;63.50;100165.84;1834051;76;21170;-80
2021/04/04 07:07:52;;;;;;;3.40;3.00;;;;;;;5.93;63.36;100163.05;1859326;76;21108;-73
2021/04/04 07:10:58;;;;;;;4.77;2.17;;;;;;;5.99;62.72;100163.73;1852752;76;21115;-91
2021/04/04 07:13:56;;;;;;;6.87;3.37;;;;;;;6.02;61.97;100163.42;1813828;78;21076;-89
2021/04/04 07:16:42;;;;;;;3.87;3.57;;;;;;;6.06;62.08;100164.75;1773573;78;21172;-84
2021/04/04 07:19:33;;;;;;;3.57;3.27;;;;;;;6.13;61.83;100167.58;1752245;81;21183;-89
2021/04/04 07:22:22;;;;;;;2.77;2.57;;;;;;;6.29;61.03;100168.94;1734073;81;21174;-87
2021/04/04 07:25:20;;;;;;;3.93;3.43;;;;;;;6.52;60.29;100172.25;1765180;79;21192;-84
2021/04/04 07:28:26;;;;;;;;;;;;;;;6.62;59.88;100167.09;1751015;81;21178;-91
2021/04/04 07:30:59;;;;;;;3.67;3.20;;;;;;;6.77;59.57;100171.72;1757135;81;20273;-87
2021/04/04 07:33:50;;;;;;;2.60;2.40;;;;;;;6.26;59.02;100078.44;1754074;80;21087;-89
2021/04/04 07:36:46;;;;;;;3.20;2.90;;;;;;;6.92;59.17;100170.03;1786763;80;21161;-91
2021/04/04 07:39:37;;;;;;;4.30;2.90;;;;;;;7.05;57.83;100168.19;1726389;81;21192;-91
2021/04/04 07:42:28;;;;;;;6.00;3.80;;;;;;;7.10;57.88;100171.17;1718106;81;21305;-90
2021/04/04 07:45:09;;;;;;;6.50;4.20;;;;;;;7.13;57.98;100175.30;1741947;81;21076;-85
2021/04/04 07:47:41;;;;;;;4.57;3.10;;;;;;;7.17;58.19;100165.49;1727394;82;21149;-89
2021/04/04 07:50:17;;;;;;;5.30;3.90;;;;;;;7.30;57.96;100172.91;1719733;82;21348;-92
2021/04/04 07:53:05;;;;;;;3.87;3.57;;;;;;;7.36;57.55;100176.20;1741910;82;21637;-88
2021/04/04 07:55:51;;;;;;;;;;;;;;;7.41;57.37;100181.00;1706229;81;21250;-90
2021/04/04 07:58:40;;;;;;;3.90;3.60;;;;;;;7.44;57.67;100179.34;1776613;79;20213;-87
2021/04/04 08:01:16;;;;;;;5.17;4.67;;;;;;;7.48;57.54;100174.02;1758227;80;21081;-89
2021/04/04 08:04:20;;;;;;;4.00;3.23;;;;;;;7.63;57.76;100174.60;1747877;81;21177;-85
2021/04/04 08:06:53;;;;;;;3.60;3.30;;;;;;;7.76;57.25;100180.17;1754464;81;21144;-86
2021/04/04 08:09:43;;;;;;;4.13;2.93;;;;;;;7.84;56.91;100173.52;1761156;81;21208;-87
2021/04/04 08:12:37;;;;;;;3.25;2.95;;;;;;;7.90;56.83;100174.64;1751406;81;21167;-88
2021/04/04 08:15:12;;;;;;;2.90;2.60;;;;;;;8.02;56.44;100179.86;1730823;81;21207;-89
2021/04/04 08:17:41;;;;;;;2.03;1.90;;;;;;;8.11;55.47;100185.95;1725689;82;21428;-91
2021/04/04 08:20:26;;;;;;;2.97;2.50;;;;;;;8.10;55.33;100181.16;1738546;82;21152;-89
2021/04/04 08:23:04;;;;;;;3.00;2.80;;;;;;;8.09;55.29;100171.53;1716522;81;21052;-86
2021/04/04 08:25:59;;;;;;;3.47;3.27;;;;;;;8.16;55.13;100172.98;1776349;80;21117;-92
2021/04/04 08:29:11;;;;;;;3.00;2.70;;;;;;;8.24;55.01;100174.25;1770888;80;21144;-86
2021/04/04 08:31:46;;;;;;;3.23;2.93;;;;;;;8.24;55.08;100170.78;1776946;80;21174;-85
2021/04/04 08:34:27;;;;;;;3.60;2.50;;;;;;;8.25;55.45;100165.30;1779143;80;21106;-83
2021/04/04 08:37:02;;;;;;;2.47;2.27;;;;;;;8.37;55.64;100160.38;1778585;79;21137;-85
2021/04/04 08:39:31;;;;;;;2.30;2.20;;;;;;;8.48;55.87;100158.66;1781018;79;21180;-86
2021/04/04 08:42:04;;;;;;;2.83;2.63;;;;;;;8.58;55.19;100156.57;1777115;79;21192;-88
2021/04/04 08:44:36;;;;;;;3.10;2.80;;;;;;;8.54;54.81;100163.77;1782958;79;21457;-86
2021/04/04 08:47:26;;;;;;;2.17;1.97;;;;;;;8.44;55.03;100168.48;1797628;79;21658;-87
2021/04/04 08:49:55;;;;;;;2.57;2.47;;;;;;;8.35;54.73;100165.87;1791622;79;21164;-85
2021/04/04 08:52:39;;;;;;;3.73;3.17;;;;;;;8.30;54.49;100167.41;1800024;79;21133;-89
2021/04/04 08:55:08;;;;;;;3.10;2.90;;;;;;;8.16;54.60;100164.52;1787595;79;21164;-86
2021/04/04 08:57:48;;;;;;;2.90;2.70;;;;;;;8.09;55.34;100173.36;1776215;79;21215;-86
2021/04/04 09:00:18;;;;;;;3.90;3.53;;;;;;;8.12;55.76;100163.73;1784699;79;21282;-85
2021/04/04 09:02:55;;;;;;;2.73;2.53;;;;;;;8.13;56.38;100160.88;1774961;78;21160;-85
2021/04/04 09:05:28;;;;;;;4.77;4.37;;;;;;;8.18;56.41;100166.48;1783448;78;21152;-89
2021/04/04 09:08:03;;;;;;;3.80;2.73;;;;;;;8.20;55.96;100166.31;1794648;78;21200;-84
2021/04/04 09:10:50;;;;;;;3.73;2.97;;;;;;;8.21;55.87;100161.31;1765115;80;23198;-85
2021/04/04 09:13:16;;;;;;;7.13;3.30;;;;;;;8.14;55.77;100168.36;1756297;81;21291;-85
2021/04/04 09:15:49;;;;;;;3.50;3.20;;;;;;;8.03;55.66;100166.11;1748904;81;21795;-86
2021/04/04 09:18:19;;;;;;;2.47;2.37;;;;;;;7.81;55.90;100177.83;1742830;81;21293;-87
2021/04/04 09:22:45;;;;;;;2.30;2.20;;;;;;;7.44;56.61;100178.02;1786357;77;23108;-82
2021/04/04 09:25:16;;;;;;;2.50;2.30;;;;;;;7.19;57.09;100173.28;1735401;81;21192;-84
2021/04/04 09:27:44;;;;;;;3.97;1.90;;;;;;;7.11;57.12;100178.61;1725996;81;21215;-79
2021/04/04 09:30:22;;;;;;;2.23;1.93;;;;;;;6.96;57.80;100177.97;1729287;81;21240;-80
2021/04/04 09:33:12;;;;;;;2.17;2.07;;;;;;;6.87;57.97;100184.28;1732588;81;21183;-83
2021/04/04 09:35:41;;;;;;;2.50;2.33;;;;;;;6.81;58.76;100180.98;1727063;81;21192;-82
2021/04/04 09:38:12;;;;;;;2.13;2.03;;;;;;;6.77;59.12;100175.19;1733378;81;21213;-83
2021/04/04 09:40:42;;;;;;;2.53;2.43;;;;;;;6.75;60.33;100179.02;1736312;81;21141;-85
2021/04/04 09:43:16;;;;;;;2.30;2.20;;;;;;;6.73;60.21;100181.00;1732161;81;21193;-84
2021/04/04 09:45:46;;;;;;;1.83;1.73;;;;;;;6.73;61.07;100189.77;1714660;82;21057;-84
2021/04/04 09:48:20;;;;;;;2.47;2.27;;;;;;;6.78;62.09;100180.83;1709431;82;21278;-82
2021/04/04 09:50:52;;;;;;;6.43;2.87;;;;;;;6.82;62.41;100184.80;1701699;82;21305;-83
2021/04/04 09:53:48;;;;;;;3.13;2.80;;;;;;;6.69;63.12;100187.13;1709674;82;21955;-85
2021/04/04 09:56:28;;;;;;;3.13;2.80;;;;;;;6.52;64.83;100192.92;1694103;82;21084;-86
2021/04/04 09:58:57;;;;;;;2.80;2.63;;;;;;;6.35;64.83;100188.63;1708523;82;21199;-82
2021/04/04 10:01:32;;;;;;;2.03;2.00;;;;;;;6.20;66.55;100187.12;1708497;82;21089;-82
2021/04/04 10:04:06;;;;;;;3.10;2.90;;;;;;;6.20;66.17;100192.41;1708557;82;21697;-84
2021/04/04 10:06:36;;;;;;;3.07;2.87;;;;;;;6.29;64.96;100193.23;1706167;83;21575;-83
2021/04/04 10:09:08;;;;;;;4.03;3.73;;;;;;;6.29;64.73;100186.14;1711548;82;21298;-83
2021/04/04 10:11:37;;;;;;;3.93;3.63;;;;;;;6.26;64.88;100183.80;1710554;81;21052;-82
2021/04/04 10:14:12;;;;;;;4.30;3.90;;;;;;;6.26;65.06;100180.34;1681652;82;21214;-82
2021/04/04 10:16:42;;;;;;;4.33;4.03;;;;;;;6.28;64.87;100181.82;1696827;82;21733;-83
2021/04/04 10:19:17;;;;;;;4.50;4.20;;;;;;;6.30;65.83;100175.86;1710540;82;21214;-81
2021/04/04 10:21:59;;;;;;;4.60;4.30;;;;;;;5.28;67.07;100004.60;1711958;82;21222;-83
2021/04/04 10:24:33;;;;;;;4.23;3.93;;;;;;;6.31;66.10;100173.56;1652905;84;22284;-82
2021/04/04 10:27:29;;;;;;;4.67;4.27;;;;;;;6.42;64.98;100164.44;1656089;85;21566;-79
2021/04/04 10:33:25;;;;;;;3.87;3.63;;;;;;;6.67;63.66;100156.01;1801351;77;23102;-83
2021/04/04 10:35:54;;;;;;;4.43;4.03;;;;;;;6.71;62.50;100155.18;1692292;82;21628;-80
2021/04/04 10:38:26;;;;;;;4.70;4.40;;;;;;;6.80;60.83;100144.91;1691031;82;21209;-83
2021/04/04 10:40:57;;;;;;;4.23;3.93;;;;;;;6.86;61.27;100153.50;1698839;82;21723;-81
2021/04/04 10:43:40;;;;;;;4.07;3.87;;;;;;;7.01;60.85;100153.63;1704726;82;21149;-82
2021/04/04 10:46:16;;;;;;;4.40;4.00;;;;;;;7.22;60.70;100153.07;1675348;83;21126;-80
2021/04/04 10:48:48;;;;;;;3.97;3.70;;;;;;;7.48;60.31;100155.93;1656607;84;21247;-81
2021/04/04 10:51:22;;;;;;;3.67;3.47;;;;;;;7.72;60.82;100159.82;1663073;85;21249;-80
2021/04/04 10:53:52;;;;;;;3.63;3.33;;;;;;;7.89;58.07;100160.55;1666376;85;21982;-83
2021/04/04 10:56:19;;;;;;;4.20;3.90;;;;;;;7.99;58.37;100158.48;1670677;83;21172;-83
2021/04/04 10:58:49;;;;;;;3.73;3.53;;;;;;;8.07;57.84;100155.47;1701796;83;21266;-82
2021/04/04 11:01:20;;;;;;;4.53;4.17;;;;;;;8.07;56.95;100153.63;1667077;84;21046;-82
2021/04/04 11:03:50;;;;;;;3.97;3.77;;;;;;;8.06;56.91;100148.01;1669031;84;21210;-83
2021/04/04 11:06:19;;;;;;;4.43;4.07;;;;;;;8.04;56.75;100142.02;1657616;84;21208;-81
2021/04/04 11:08:47;;;;;;;4.10;3.77;;;;;;;8.04;56.57;100139.37;1686474;83;21311;-82
2021/04/04 11:11:15;;;;;;;3.30;3.10;;;;;;;8.09;56.93;100142.33;1673242;82;21202;-80
2021/04/04 11:13:49;;;;;;;3.63;3.10;;;;;;;8.14;55.61;100141.81;1683545;84;21621;-83
2021/04/04 11:16:25;;;;;;;2.55;2.45;;;;;;;8.19;55.48;100136.77;1673959;84;22375;-82
2021/04/04 11:18:57;;;;;;;2.93;2.83;;;;;;;8.27;55.10;100134.55;1654618;84;21225;-82
2021/04/04 11:21:38;;;;;;;3.43;3.23;;;;;;;8.36;54.98;100118.88;1660952;84;21233;-81
2021/04/04 11:24:14;;;;;;;3.00;2.80;;;;;;;8.42;54.27;100118.70;1696042;83;22226;-81
2021/04/04 11:26:55;;;;;;;3.50;3.27;;;;;;;8.43;54.02;100121.18;1688095;84;21236;-81
2021/04/04 11:29:27;;;;;;;4.37;4.07;;;;;;;8.44;54.84;100119.34;1684180;83;21273;-81
2021/04/04 11:32:17;;;;;;;5.10;3.90;;;;;;;8.39;55.24;100111.38;1692182;83;21339;-82
2021/04/04 11:35:01;;;;;;;4.50;4.10;;;;;;;8.39;54.97;100116.70;1662350;83;21152;-80
2021/04/04 11:37:33;;;;;;;4.80;4.50;;;;;;;8.36;54.23;100114.42;1650681;85;21400;-82
2021/04/04 11:40:20;;;;;;;5.93;3.90;;;;;;;8.36;54.85;100113.09;1633011;86;21187;-81
2021/04/04 11:42:54;;;;;;;3.67;3.47;;;;;;;8.43;53.90;100115.05;1640416;85;21251;-81
2021/04/04 11:45:36;;;;;;;3.67;3.40;;;;;;;8.48;53.13;100107.38;1647959;85;21128;-80
2021/04/04 11:48:34;;;;;;;3.63;3.23;;;;;;;8.55;54.42;100100.31;1621501;86;21336;-83
2021/04/04 11:51:18;;;;;;;3.07;2.93;;;;;;;8.65;53.96;100112.84;1653379;84;21266;-83
2021/04/04 11:53:49;;;;;;;3.40;3.00;;;;;;;8.72;52.32;100108.47;1635988;86;21192;-82
2021/04/04 11:56:43;;;;;;;3.53;3.33;;;;;;;8.67;52.05;100109.50;1653722;84;21119;-81
2021/04/04 11:59:13;;;;;;;3.97;3.67;;;;;;;8.67;52.77;100104.19;1671951;84;21200;-82
2021/04/04 12:01:41;;;;;;;4.30;4.00;;;;;;;8.67;52.54;100104.19;1668722;83;21109;-82
2021/04/04 12:07:18;;;;;;;4.70;4.30;;;;;;;8.55;53.11;100101.16;1796224;79;23116;-82
2021/04/04 12:09:47;;;;;;;4.50;4.20;;;;;;;8.48;52.91;100114.02;1759917;80;21165;-83
2021/04/04 12:12:16;;;;;;;3.83;3.53;;;;;;;8.43;53.20;100113.72;1715004;81;21057;-81
2021/04/04 12:14:55;;;;;;;3.83;3.43;;;;;;;8.37;52.77;100112.06;1662745;84;21212;-83
2021/04/04 12:17:28;;;;;;;3.23;3.03;;;;;;;8.33;52.46;100110.78;1676391;84;21617;-82
2021/04/04 12:19:59;;;;;;;4.43;4.13;;;;;;;8.26;52.34;100111.16;1673525;83;21182;-81